Time;durP1;ratioP1;P1;durP2;ratioP2;P2;SDS_P1;SDS_P2;PMS_P1;PMS_P2;Temp;Humidity;BMP_temperature;BMP_pressure;BME280_temperature;BME280_humidity;BME280_pressure;Samples;Min_cycle;Max_cycle;Signal;HPM_P1;HPM_P2
2022/08/15 00:00:19;;;;;;;3.93;3.17;;;17.20;99.90;;;;;;5074143;28;20467;-78
2022/08/15 00:02:48;;;;;;;3.60;3.10;;;17.30;99.90;;;;;;5079035;28;20461;-78
2022/08/15 00:05:19;;;;;;;4.87;4.10;;;17.40;99.90;;;;;;5084110;28;20475;-77
2022/08/15 00:07:47;;;;;;;4.40;3.87;;;17.40;99.90;;;;;;5076201;28;20893;-81
2022/08/15 00:10:14;;;;;;;4.43;3.57;;;17.40;99.90;;;;;;5076122;28;20448;-80
2022/08/15 00:12:41;;;;;;;4.73;3.77;;;17.30;99.90;;;;;;5083185;28;20473;-80
2022/08/15 00:15:11;;;;;;;5.30;3.70;;;17.20;99.90;;;;;;5080801;28;20443;-78
2022/08/15 00:17:39;;;;;;;5.90;3.87;;;17.10;99.90;;;;;;5084263;28;20459;-77
2022/08/15 00:20:10;;;;;;;3.37;3.07;;;17.10;99.90;;;;;;5080482;28;20458;-78
2022/08/15 00:22:44;;;;;;;5.40;4.70;;;17.00;99.90;;;;;;5081459;28;20463;-77
2022/08/15 00:25:11;;;;;;;4.40;2.83;;;17.00;99.90;;;;;;5081419;28;20511;-77
2022/08/15 00:27:38;;;;;;;4.57;3.47;;;17.10;99.90;;;;;;5081053;28;20936;-78
2022/08/15 00:30:08;;;;;;;5.83;4.67;;;17.00;99.90;;;;;;5075938;28;21365;-78
2022/08/15 00:32:36;;;;;;;3.20;2.90;;;16.90;99.90;;;;;;5069946;28;20483;-77
2022/08/15 00:35:35;;;;;;;4.93;4.33;;;16.80;99.90;;;;;;5070101;28;20468;-77
2022/08/15 00:37:55;;;;;;;4.40;4.00;;;16.70;99.90;;;;;;5081378;28;21113;-77
2022/08/15 00:40:23;;;;;;;5.10;3.13;;;16.80;99.90;;;;;;5076636;28;20455;-78
2022/08/15 00:42:49;;;;;;;3.80;3.27;;;16.70;99.90;;;;;;5075934;28;20491;-77
2022/08/15 00:45:16;;;;;;;3.43;2.77;;;16.60;99.90;;;;;;5082511;28;20446;-78
2022/08/15 00:48:41;;;;;;;5.23;4.00;;;16.60;99.90;;;;;;5077610;28;20572;-78
2022/08/15 00:50:30;;;;;;;6.00;3.47;;;16.60;99.90;;;;;;5076816;28;20447;-79
2022/08/15 00:53:01;;;;;;;5.10;3.90;;;16.70;99.90;;;;;;5081991;28;20482;-78
2022/08/15 00:55:28;;;;;;;5.10;3.50;;;16.80;99.90;;;;;;5081036;28;20470;-77
2022/08/15 00:57:56;;;;;;;4.93;4.33;;;16.80;99.90;;;;;;5082882;28;20451;-77
2022/08/15 01:00:28;;;;;;;3.93;3.20;;;16.60;99.90;;;;;;5081505;28;20491;-78
2022/08/15 01:02:59;;;;;;;5.13;4.33;;;16.60;99.90;;;;;;5072926;28;20486;-78
2022/08/15 01:05:26;;;;;;;3.80;2.93;;;16.50;99.90;;;;;;5081682;28;20467;-78
2022/08/15 01:07:53;;;;;;;3.73;2.60;;;16.50;99.90;;;;;;5083444;28;20479;-77
2022/08/15 01:10:22;;;;;;;4.30;3.90;;;16.30;99.90;;;;;;5078355;28;20550;-77
2022/08/15 01:12:49;;;;;;;5.83;3.10;;;16.40;99.90;;;;;;5077447;28;20495;-80
2022/08/15 01:15:16;;;;;;;6.07;4.33;;;16.50;99.90;;;;;;5080732;28;20454;-77
2022/08/15 01:17:44;;;;;;;4.30;3.17;;;16.40;99.90;;;;;;5083890;28;20447;-79
2022/08/15 01:20:16;;;;;;;4.33;3.93;;;16.50;99.90;;;;;;5072371;28;20463;-77
2022/08/15 01:22:56;;;;;;;4.23;3.43;;;16.50;99.90;;;;;;5076950;28;20672;-77
2022/08/15 01:25:28;;;;;;;7.53;4.63;;;16.50;99.90;;;;;;5077855;28;20454;-79
2022/08/15 01:28:00;;;;;;;4.23;3.30;;;16.50;99.90;;;;;;5077301;28;21222;-78
2022/08/15 01:30:31;;;;;;;3.40;2.90;;;16.30;99.90;;;;;;5072743;28;20450;-79
2022/08/15 01:32:59;;;;;;;3.83;3.43;;;16.30;99.90;;;;;;5075754;28;20463;-77
2022/08/15 01:35:26;;;;;;;5.07;3.47;;;16.40;99.90;;;;;;5077533;28;20459;-80
2022/08/15 01:37:54;;;;;;;4.47;3.80;;;16.50;99.90;;;;;;5075341;28;20499;-80
2022/08/15 01:40:31;;;;;;;5.00;3.83;;;16.50;99.90;;;;;;5080996;28;20458;-80
2022/08/15 01:42:59;;;;;;;3.20;2.90;;;16.40;99.90;;;;;;5077673;28;20498;-80
2022/08/15 01:45:30;;;;;;;5.00;3.00;;;16.30;99.90;;;;;;5071225;28;20537;-78
2022/08/15 01:48:03;;;;;;;5.93;4.00;;;16.30;99.90;;;;;;5080140;28;20898;-77
2022/08/15 01:50:33;;;;;;;4.23;3.40;;;16.20;99.90;;;;;;5077753;28;20493;-78
2022/08/15 01:53:06;;;;;;;4.20;3.10;;;16.20;99.90;;;;;;5081172;28;20475;-80
2022/08/15 01:55:51;;;;;;;3.70;2.60;;;16.20;99.90;;;;;;5079048;28;20460;-80
2022/08/15 01:58:18;;;;;;;3.20;2.93;;;16.20;99.90;;;;;;5080627;28;21217;-78
2022/08/15 02:00:53;;;;;;;5.40;4.17;;;16.20;99.90;;;;;;5081864;28;20447;-77
2022/08/15 02:03:33;;;;;;;2.90;2.33;;;16.10;99.90;;;;;;5075496;28;20475;-78
2022/08/15 02:06:00;;;;;;;4.17;3.73;;;16.20;99.90;;;;;;5078392;28;21228;-78
2022/08/15 02:08:27;;;;;;;4.93;3.60;;;16.10;99.90;;;;;;5078055;28;20514;-77
2022/08/15 02:10:56;;;;;;;5.23;3.43;;;16.10;99.90;;;;;;5075793;28;20962;-78
2022/08/15 02:13:24;;;;;;;4.80;3.70;;;15.90;99.90;;;;;;5079947;28;20454;-78
2022/08/15 02:15:51;;;;;;;3.47;3.17;;;16.00;99.90;;;;;;5079635;28;21169;-78
2022/08/15 02:18:18;;;;;;;4.27;3.53;;;15.90;99.90;;;;;;5075505;28;20474;-77
2022/08/15 02:20:45;;;;;;;6.70;3.80;;;15.90;99.90;;;;;;5076121;28;20579;-78
2022/08/15 02:23:12;;;;;;;4.33;2.37;;;15.80;99.90;;;;;;5073708;28;20474;-77
2022/08/15 02:25:39;;;;;;;3.70;2.83;;;15.80;99.90;;;;;;5077623;28;20459;-78
2022/08/15 02:28:08;;;;;;;3.40;3.10;;;15.80;99.90;;;;;;5076956;28;20540;-78
2022/08/15 02:30:35;;;;;;;3.83;3.50;;;15.90;99.90;;;;;;5076287;28;20528;-79
2022/08/15 02:33:04;;;;;;;6.40;3.37;;;15.90;99.90;;;;;;5076569;28;20463;-78
2022/08/15 02:35:31;;;;;;;3.70;2.97;;;15.80;99.90;;;;;;5077562;28;20903;-77
2022/08/15 02:38:01;;;;;;;4.07;3.67;;;15.90;99.90;;;;;;5074746;28;20571;-79
2022/08/15 02:40:29;;;;;;;5.37;3.70;;;15.80;99.90;;;;;;5076934;28;20988;-78
2022/08/15 02:42:57;;;;;;;4.57;3.87;;;15.80;99.90;;;;;;5075491;28;20491;-78
2022/08/15 02:45:26;;;;;;;4.63;3.97;;;15.70;99.90;;;;;;5085777;28;20766;-78
2022/08/15 02:47:53;;;;;;;3.90;3.60;;;15.90;99.90;;;;;;5075604;28;20489;-77
2022/08/15 02:50:22;;;;;;;4.00;3.60;;;15.90;99.90;;;;;;5076205;28;20495;-79
2022/08/15 02:52:49;;;;;;;4.57;3.80;;;15.90;99.90;;;;;;5079000;28;20466;-79
2022/08/15 02:55:18;;;;;;;6.30;4.53;;;15.90;99.90;;;;;;5076776;28;20470;-77
2022/08/15 02:57:47;;;;;;;5.23;4.60;;;16.00;99.90;;;;;;5075095;28;21018;-78
2022/08/15 03:00:16;;;;;;;5.40;3.47;;;15.80;99.90;;;;;;5079448;28;20520;-77
2022/08/15 03:02:53;;;;;;;6.50;5.80;;;15.80;99.90;;;;;;5075557;28;20987;-79
2022/08/15 03:05:20;;;;;;;4.27;3.43;;;15.80;99.90;;;;;;5070865;28;20550;-80
2022/08/15 03:07:47;;;;;;;8.40;4.73;;;15.80;99.90;;;;;;5078355;28;20486;-79
2022/08/15 03:10:14;;;;;;;6.50;4.73;;;15.70;99.90;;;;;;5081334;28;20467;-81
2022/08/15 03:12:54;;;;;;;5.30;3.97;;;15.60;99.90;;;;;;5082656;28;20511;-80
2022/08/15 03:15:22;;;;;;;5.07;4.57;;;15.60;99.90;;;;;;5086969;28;20523;-78
2022/08/15 03:17:50;;;;;;;5.47;4.27;;;15.60;99.90;;;;;;5078914;28;20539;-76
2022/08/15 03:20:19;;;;;;;3.67;2.80;;;15.50;99.90;;;;;;5077052;28;20545;-79
2022/08/15 03:22:49;;;;;;;4.47;2.70;;;15.40;99.90;;;;;;5084959;28;20546;-77
2022/08/15 03:25:18;;;;;;;4.67;3.67;;;15.50;99.90;;;;;;5080295;28;20865;-78
2022/08/15 03:27:46;;;;;;;3.53;2.70;;;15.50;99.90;;;;;;5084083;28;20557;-77
2022/08/15 03:30:15;;;;;;;4.20;3.20;;;15.50;99.90;;;;;;5081944;28;20597;-76
2022/08/15 03:32:44;;;;;;;4.40;3.47;;;15.60;99.90;;;;;;5083857;28;20464;-77
2022/08/15 03:35:12;;;;;;;5.03;3.00;;;15.60;99.90;;;;;;5082881;28;20445;-78
2022/08/15 03:37:41;;;;;;;3.53;2.90;;;15.60;99.90;;;;;;5080492;28;20952;-80
2022/08/15 03:40:10;;;;;;;3.50;3.20;;;15.60;99.90;;;;;;5081795;28;21152;-79
2022/08/15 03:42:38;;;;;;;4.70;3.77;;;15.50;99.90;;;;;;5085176;28;20505;-78
2022/08/15 03:45:09;;;;;;;4.80;3.50;;;15.40;99.90;;;;;;5077873;28;20462;-79
2022/08/15 03:47:37;;;;;;;4.20;3.53;;;15.40;99.90;;;;;;5074861;28;20899;-78
2022/08/15 03:50:05;;;;;;;7.17;4.83;;;15.40;99.90;;;;;;5075054;28;20559;-78
2022/08/15 03:52:34;;;;;;;5.37;3.00;;;15.40;99.90;;;;;;5076840;28;20474;-78
2022/08/15 03:55:04;;;;;;;4.60;3.93;;;15.40;99.90;;;;;;5077819;28;20485;-78
2022/08/15 03:57:32;;;;;;;3.10;2.60;;;15.40;99.90;;;;;;5079237;28;20899;-77
2022/08/15 03:59:59;;;;;;;4.73;3.70;;;15.40;99.90;;;;;;5076861;28;20460;-78
2022/08/15 04:02:26;;;;;;;5.73;3.70;;;15.50;99.90;;;;;;5084446;28;20510;-78
2022/08/15 04:04:53;;;;;;;4.33;3.93;;;15.50;99.90;;;;;;5081471;28;20933;-75
2022/08/15 04:07:20;;;;;;;5.90;2.97;;;15.40;99.90;;;;;;5082506;28;20992;-80
2022/08/15 04:09:47;;;;;;;3.23;2.93;;;15.40;99.90;;;;;;5075424;28;20539;-77
2022/08/15 04:12:29;;;;;;;5.53;3.70;;;15.40;99.90;;;;;;5083733;28;20547;-78
2022/08/15 04:14:56;;;;;;;3.50;3.23;;;15.40;99.90;;;;;;5082614;28;20462;-77
2022/08/15 04:17:23;;;;;;;4.27;3.50;;;15.30;99.90;;;;;;5078934;28;20481;-78
2022/08/15 04:19:52;;;;;;;6.00;3.60;;;15.30;99.90;;;;;;5074974;28;20479;-77
2022/08/15 04:22:29;;;;;;;5.90;4.30;;;15.30;99.90;;;;;;5081983;28;20584;-76
2022/08/15 04:25:01;;;;;;;4.10;2.60;;;15.30;99.90;;;;;;5079807;28;20471;-78
2022/08/15 04:27:30;;;;;;;9.67;4.67;;;15.40;99.90;;;;;;5079758;28;21588;-78
2022/08/15 04:29:57;;;;;;;5.40;4.37;;;15.40;99.90;;;;;;5083279;28;20549;-79
2022/08/15 04:32:27;;;;;;;6.50;4.73;;;15.40;99.90;;;;;;5076982;28;20479;-77
2022/08/15 04:34:55;;;;;;;5.10;4.00;;;15.50;99.90;;;;;;5079063;28;20520;-80
2022/08/15 04:37:23;;;;;;;5.40;4.30;;;15.60;99.90;;;;;;5078067;28;20553;-78
2022/08/15 04:39:50;;;;;;;3.10;2.50;;;15.60;99.90;;;;;;5080817;28;21113;-78
2022/08/15 04:42:19;;;;;;;5.37;3.97;;;15.70;99.90;;;;;;5083535;28;20464;-77
2022/08/15 04:44:47;;;;;;;4.87;3.20;;;15.80;99.90;;;;;;5075354;28;20469;-79
2022/08/15 04:47:15;;;;;;;3.33;3.03;;;16.00;99.90;;;;;;5084305;28;20525;-78
2022/08/15 04:49:42;;;;;;;7.43;3.57;;;15.90;99.90;;;;;;5076573;28;20551;-80
2022/08/15 04:52:13;;;;;;;6.03;3.90;;;15.90;99.90;;;;;;5074959;28;20536;-77
2022/08/15 04:54:40;;;;;;;6.13;3.70;;;16.00;99.90;;;;;;5083386;28;20554;-77
2022/08/15 04:57:08;;;;;;;3.73;3.27;;;16.00;99.90;;;;;;5078756;28;20498;-78
2022/08/15 04:59:36;;;;;;;5.00;3.87;;;16.00;99.90;;;;;;5073918;28;20505;-79
2022/08/15 05:02:06;;;;;;;4.30;3.77;;;16.10;99.90;;;;;;5077914;28;20474;-79
2022/08/15 05:04:34;;;;;;;2.90;2.70;;;16.20;99.90;;;;;;5075005;28;20483;-80
2022/08/15 05:07:01;;;;;;;5.07;3.10;;;16.30;99.90;;;;;;5078168;28;20444;-83
2022/08/15 05:09:29;;;;;;;4.57;3.00;;;16.40;99.90;;;;;;5073331;28;20491;-83
2022/08/15 05:11:56;;;;;;;4.60;4.20;;;16.50;99.90;;;;;;5073115;28;20468;-82
2022/08/15 05:14:23;;;;;;;4.23;3.87;;;16.70;99.90;;;;;;5067456;28;20460;-84
2022/08/15 05:16:50;;;;;;;2.80;2.60;;;16.70;99.90;;;;;;5067063;28;20508;-83
2022/08/15 05:19:18;;;;;;;4.30;3.70;;;16.80;99.90;;;;;;5067868;28;20525;-84
2022/08/15 05:21:45;;;;;;;3.27;2.90;;;16.80;99.90;;;;;;5069605;28;20982;-83
2022/08/15 05:24:12;;;;;;;5.27;4.27;;;16.80;99.90;;;;;;5070293;28;20546;-81
2022/08/15 05:26:39;;;;;;;4.60;3.80;;;16.90;99.90;;;;;;5072522;28;20488;-85
2022/08/15 05:29:07;;;;;;;4.10;3.53;;;17.10;99.90;;;;;;5070466;28;20519;-83
2022/08/15 05:31:35;;;;;;;3.10;2.80;;;17.10;99.90;;;;;;5071427;28;20554;-83
2022/08/15 05:34:02;;;;;;;6.73;3.50;;;17.20;99.90;;;;;;5075151;28;21053;-82
2022/08/15 05:36:33;;;;;;;4.33;3.37;;;17.20;99.90;;;;;;5081306;28;20463;-83
2022/08/15 05:39:03;;;;;;;5.63;4.57;;;17.40;99.90;;;;;;5073415;28;20823;-83
2022/08/15 05:41:39;;;;;;;4.77;4.20;;;17.50;99.90;;;;;;5072661;28;20461;-82
2022/08/15 05:44:17;;;;;;;6.10;4.60;;;17.60;99.90;;;;;;5071792;28;21064;-82
2022/08/15 05:46:46;;;;;;;3.60;3.17;;;17.60;99.90;;;;;;5070459;28;20462;-82
2022/08/15 05:49:26;;;;;;;5.03;4.17;;;17.80;99.90;;;;;;5080185;28;20490;-81
2022/08/15 05:52:04;;;;;;;5.77;4.13;;;17.90;99.90;;;;;;5070308;28;20466;-85
2022/08/15 05:54:44;;;;;;;5.50;4.00;;;18.10;99.90;;;;;;5074791;28;20513;-83
2022/08/15 05:57:16;;;;;;;5.20;3.47;;;18.20;99.90;;;;;;5065753;28;20522;-83
2022/08/15 05:59:49;;;;;;;3.40;2.37;;;18.50;99.90;;;;;;5075993;28;20460;-83
2022/08/15 06:02:21;;;;;;;5.97;5.00;;;18.80;99.90;;;;;;5088547;28;20527;-83
2022/08/15 06:04:56;;;;;;;4.23;3.13;;;18.70;99.90;;;;;;5077874;28;20470;-82
2022/08/15 06:07:26;;;;;;;2.87;2.67;;;18.80;99.90;;;;;;5077711;28;20467;-82
2022/08/15 06:09:57;;;;;;;5.90;3.93;;;18.80;99.90;;;;;;5076146;28;20497;-83
2022/08/15 06:12:30;;;;;;;4.70;3.80;;;19.00;99.90;;;;;;5066532;28;20477;-82
2022/08/15 06:15:02;;;;;;;5.73;4.27;;;19.10;99.90;;;;;;5074822;28;20454;-84
2022/08/15 06:17:35;;;;;;;8.93;3.90;;;19.30;99.90;;;;;;5071467;28;21040;-92
2022/08/15 06:20:05;;;;;;;3.97;3.43;;;19.40;99.90;;;;;;5069252;28;20767;-86
2022/08/15 06:22:54;;;;;;;5.97;3.60;;;19.50;99.90;;;;;;5069763;28;20903;-87
2022/08/15 06:25:33;;;;;;;4.77;4.37;;;19.60;99.90;;;;;;5069800;28;20461;-88
2022/08/15 06:28:14;;;;;;;4.07;3.77;;;19.80;99.90;;;;;;5079771;28;20450;-87
2022/08/15 06:30:48;;;;;;;3.83;3.53;;;20.20;99.90;;;;;;5085455;28;20449;-88
2022/08/15 06:33:28;;;;;;;4.33;3.87;;;20.30;99.90;;;;;;5076644;28;20470;-87
2022/08/15 06:36:03;;;;;;;4.53;4.13;;;20.50;99.90;;;;;;5074486;28;20467;-87
2022/08/15 06:38:42;;;;;;;3.47;3.17;;;20.50;99.90;;;;;;5075194;28;20509;-85
2022/08/15 06:41:21;;;;;;;3.87;3.33;;;20.60;99.90;;;;;;5077633;28;20922;-86
2022/08/15 06:43:48;;;;;;;4.63;4.20;;;20.80;99.90;;;;;;5075700;28;20496;-86
2022/08/15 06:46:16;;;;;;;4.63;4.27;;;20.90;99.90;;;;;;5084683;28;20515;-87
2022/08/15 06:48:44;;;;;;;4.77;4.37;;;21.00;99.90;;;;;;5074879;28;20487;-86
2022/08/15 06:51:13;;;;;;;4.30;3.90;;;20.80;99.90;;;;;;5077786;28;21358;-87
2022/08/15 06:53:47;;;;;;;5.00;4.23;;;21.00;99.90;;;;;;5082153;28;21475;-87
2022/08/15 06:56:24;;;;;;;4.07;3.70;;;21.10;99.90;;;;;;5088992;28;20443;-89
2022/08/15 06:58:58;;;;;;;5.90;4.57;;;21.30;99.90;;;;;;5086146;28;20486;-87
2022/08/15 07:01:36;;;;;;;4.37;3.70;;;21.40;99.90;;;;;;5097873;28;20544;-88
2022/08/15 07:04:17;;;;;;;5.20;4.50;;;21.50;99.90;;;;;;5088560;28;20821;-86
2022/08/15 07:06:50;;;;;;;4.40;4.03;;;21.50;99.90;;;;;;5087982;28;20464;-86
2022/08/15 07:09:33;;;;;;;3.97;3.67;;;21.60;99.90;;;;;;5083137;28;20535;-86
2022/08/15 07:12:13;;;;;;;3.80;3.10;;;21.80;99.90;;;;;;5086114;28;20491;-86
2022/08/15 07:14:52;;;;;;;3.40;3.10;;;21.80;99.90;;;;;;5076517;28;20458;-86
2022/08/15 07:17:25;;;;;;;4.00;3.60;;;21.90;99.90;;;;;;5086194;28;20462;-87
2022/08/15 07:19:52;;;;;;;3.17;2.87;;;22.20;99.90;;;;;;5078442;28;20958;-86
2022/08/15 07:22:19;;;;;;;3.60;2.80;;;22.40;99.90;;;;;;5075300;28;20543;-87
2022/08/15 07:24:56;;;;;;;2.87;2.67;;;22.50;99.90;;;;;;5079887;28;20486;-86
2022/08/15 07:27:30;;;;;;;3.40;3.10;;;22.50;99.90;;;;;;5081937;28;20469;-90
2022/08/15 07:30:00;;;;;;;3.40;3.10;;;22.70;99.90;;;;;;5083874;28;20479;-87
2022/08/15 07:32:31;;;;;;;3.90;2.87;;;22.80;99.90;;;;;;5080949;28;20454;-86
2022/08/15 07:35:04;;;;;;;3.37;3.07;;;22.80;99.90;;;;;;5080021;28;20447;-90
2022/08/15 07:37:34;;;;;;;3.63;3.27;;;22.70;99.90;;;;;;5086703;28;20462;-86
2022/08/15 07:40:06;;;;;;;3.37;3.17;;;22.90;99.90;;;;;;5078636;28;20962;-87
2022/08/15 07:42:41;;;;;;;3.90;3.47;;;23.10;99.90;;;;;;5075325;28;20518;-87
2022/08/15 07:45:15;;;;;;;2.83;2.60;;;23.20;99.60;;;;;;5081396;28;20472;-87
2022/08/15 07:47:55;;;;;;;3.43;2.90;;;23.30;99.30;;;;;;5082621;28;20450;-86
2022/08/15 07:50:37;;;;;;;4.03;3.63;;;23.30;99.20;;;;;;5081465;28;20498;-86
2022/08/15 07:53:16;;;;;;;3.20;3.00;;;23.50;98.90;;;;;;5071857;28;20837;-89
2022/08/15 07:56:05;;;;;;;3.60;3.30;;;23.70;98.50;;;;;;5081991;28;20559;-89
2022/08/15 07:58:34;;;;;;;4.07;3.70;;;23.70;97.50;;;;;;5077889;28;20518;-88
2022/08/15 08:01:10;;;;;;;3.20;2.90;;;24.10;98.40;;;;;;5084355;28;20911;-87
2022/08/15 08:03:40;;;;;;;4.03;3.27;;;24.20;97.80;;;;;;5079189;28;21162;-86
2022/08/15 08:06:15;;;;;;;2.90;2.70;;;24.20;97.50;;;;;;5079591;28;20563;-87
2022/08/15 08:08:49;;;;;;;3.20;2.70;;;24.40;96.70;;;;;;5080502;28;20438;-87
2022/08/15 08:11:24;;;;;;;3.53;3.00;;;24.20;95.30;;;;;;5078630;28;20516;-88
2022/08/15 08:14:01;;;;;;;2.60;2.23;;;24.00;95.20;;;;;;5081664;28;20466;-89
2022/08/15 08:16:33;;;;;;;2.90;2.70;;;23.90;95.20;;;;;;5079516;28;21019;-86
2022/08/15 08:19:07;;;;;;;3.73;2.83;;;24.30;96.00;;;;;;5082165;28;20914;-86
2022/08/15 08:21:41;;;;;;;2.50;2.30;;;24.40;93.80;;;;;;5078343;28;20482;-86
2022/08/15 08:24:15;;;;;;;2.07;1.83;;;24.80;93.70;;;;;;5079014;28;20458;-86
2022/08/15 08:26:53;;;;;;;2.37;2.17;;;24.80;92.90;;;;;;5077911;28;20520;-85
2022/08/15 08:29:28;;;;;;;2.40;2.20;;;25.00;93.80;;;;;;5078038;28;20506;-86
2022/08/15 08:32:06;;;;;;;3.50;2.40;;;25.20;91.20;;;;;;5074850;28;20696;-85
2022/08/15 08:34:40;;;;;;;3.13;2.50;;;25.20;91.40;;;;;;5075416;28;20504;-88
2022/08/15 08:37:13;;;;;;;3.10;2.23;;;25.30;92.00;;;;;;5073323;28;20563;-87
2022/08/15 08:39:48;;;;;;;3.07;2.80;;;25.20;91.30;;;;;;5079665;28;21013;-89
2022/08/15 08:42:29;;;;;;;3.03;2.83;;;25.50;90.20;;;;;;5071525;28;20485;-87
2022/08/15 08:45:08;;;;;;;1.90;1.80;;;25.40;86.50;;;;;;5071886;28;21234;-86
2022/08/15 08:47:50;;;;;;;2.37;2.17;;;25.20;89.10;;;;;;5074549;28;20927;-87
2022/08/15 08:50:28;;;;;;;2.50;2.03;;;25.50;88.50;;;;;;5077444;28;20495;-87
2022/08/15 08:53:07;;;;;;;2.33;2.13;;;25.90;89.30;;;;;;5078978;28;20505;-86
2022/08/15 08:55:41;;;;;;;2.70;2.40;;;26.00;87.40;;;;;;5075790;28;20466;-87
2022/08/15 08:58:16;;;;;;;2.23;2.13;;;26.20;85.80;;;;;;5076613;28;20517;-87
2022/08/15 09:00:46;;;;;;;2.03;1.90;;;26.30;84.60;;;;;;5071260;28;20467;-87
2022/08/15 09:03:18;;;;;;;4.07;1.87;;;25.80;82.40;;;;;;5075176;28;20467;-89
2022/08/15 09:05:51;;;;;;;1.83;1.70;;;26.00;83.70;;;;;;5085586;28;20539;-93
2022/08/15 09:08:24;;;;;;;2.50;2.30;;;25.90;82.30;;;;;;5076718;28;20533;-85
2022/08/15 09:10:56;;;;;;;2.13;1.93;;;26.10;82.90;;;;;;5075433;28;20490;-85
2022/08/15 09:13:34;;;;;;;2.37;2.27;;;26.40;80.20;;;;;;5072660;28;20467;-85
2022/08/15 09:16:09;;;;;;;1.40;1.30;;;26.70;79.40;;;;;;5074873;28;20440;-86
2022/08/15 09:18:40;;;;;;;2.63;1.53;;;26.60;76.50;;;;;;5068608;28;20534;-87
2022/08/15 09:21:08;;;;;;;1.47;1.37;;;26.00;76.60;;;;;;5077006;28;20529;-85
2022/08/15 09:23:38;;;;;;;1.60;1.50;;;25.90;76.40;;;;;;5079123;28;20539;-87
2022/08/15 09:26:15;;;;;;;2.33;2.10;;;25.80;76.60;;;;;;5076360;28;20466;-85
2022/08/15 09:28:46;;;;;;;1.33;1.23;;;26.20;78.90;;;;;;5071155;28;20470;-85
2022/08/15 09:31:16;;;;;;;1.57;1.47;;;26.60;77.40;;;;;;5074242;28;20540;-85
2022/08/15 09:34:12;;;;;;;2.40;2.10;;;26.80;76.00;;;;;;5076566;28;20454;-85
2022/08/15 09:37:01;;;;;;;1.50;1.40;;;26.70;76.90;;;;;;5077274;28;21137;-86
2022/08/15 09:40:04;;;;;;;2.57;2.37;;;26.60;75.60;;;;;;5071759;28;20467;-94
2022/08/15 09:42:44;;;;;;;2.50;2.00;;;26.70;75.80;;;;;;5070169;28;20485;-84
2022/08/15 09:45:34;;;;;;;3.47;1.77;;;26.80;75.00;;;;;;5066113;28;21179;-85
2022/08/15 09:48:33;;;;;;;1.93;1.70;;;27.10;75.00;;;;;;5073689;28;20921;-86
2022/08/15 09:51:38;;;;;;;1.83;1.73;;;27.10;73.90;;;;;;5076709;28;20497;-85
2022/08/15 09:54:13;;;;;;;2.30;1.63;;;27.10;74.70;;;;;;5088955;28;20455;-84
2022/08/15 09:56:40;;;;;;;3.03;2.13;;;27.10;74.50;;;;;;5090813;28;20450;-85
2022/08/15 09:59:17;;;;;;;1.90;1.80;;;27.10;75.90;;;;;;5083715;28;20537;-85
2022/08/15 10:01:48;;;;;;;2.80;1.63;;;26.90;73.50;;;;;;5078185;28;20461;-86
2022/08/15 10:04:18;;;;;;;1.83;1.73;;;26.70;73.70;;;;;;5072694;28;20540;-85
2022/08/15 10:07:08;;;;;;;2.80;2.60;;;26.90;73.60;;;;;;5076701;28;20577;-85
2022/08/15 10:09:38;;;;;;;2.70;1.67;;;27.10;74.50;;;;;;5034825;28;20942;-86
2022/08/15 10:12:23;;;;;;;1.50;1.40;;;27.10;72.00;;;;;;5076682;28;21051;-85
2022/08/15 10:15:01;;;;;;;3.60;2.03;;;27.20;72.20;;;;;;5078665;28;20506;-85
2022/08/15 10:17:42;;;;;;;2.30;2.10;;;27.50;73.00;;;;;;5082211;28;20477;-87
2022/08/15 10:20:52;;;;;;;1.50;1.27;;;27.40;70.20;;;;;;5076952;28;20559;-85
2022/08/15 10:23:31;;;;;;;7.73;4.93;;;27.30;70.60;;;;;;5070633;28;20501;-84
2022/08/15 10:26:24;;;;;;;3.73;3.10;;;27.50;71.70;;;;;;5074851;28;20998;-85
2022/08/15 10:29:09;;;;;;;2.07;1.70;;;27.60;71.50;;;;;;5083446;28;20439;-85
2022/08/15 10:31:50;;;;;;;1.80;1.70;;;27.60;68.70;;;;;;5080840;28;20483;-86
2022/08/15 10:34:37;;;;;;;2.97;2.77;;;27.50;69.30;;;;;;5069190;28;20566;-85
2022/08/15 10:37:25;;;;;;;1.60;1.50;;;27.20;68.60;;;;;;5068750;28;20462;-86
2022/08/15 10:40:17;;;;;;;1.77;1.40;;;27.50;71.70;;;;;;5069321;28;20463;-85
2022/08/15 10:42:54;;;;;;;1.90;1.37;;;27.80;68.60;;;;;;5070471;28;20564;-84
2022/08/15 10:45:27;;;;;;;1.50;1.40;;;27.80;67.50;;;;;;5069279;28;20465;-86
2022/08/15 10:48:05;;;;;;;1.47;1.37;;;27.60;67.20;;;;;;5075317;28;20528;-85
2022/08/15 10:50:51;;;;;;;2.97;2.70;;;27.50;67.30;;;;;;5077971;28;20483;-85
2022/08/15 10:53:29;;;;;;;1.67;1.57;;;27.40;68.10;;;;;;5076706;28;20849;-84
2022/08/15 10:56:09;;;;;;;1.97;1.87;;;27.50;68.70;;;;;;5080325;28;20497;-85
2022/08/15 10:58:36;;;;;;;2.47;2.30;;;27.80;66.80;;;;;;5077994;28;20463;-85
2022/08/15 11:01:09;;;;;;;1.50;1.40;;;27.60;67.90;;;;;;5070820;28;20490;-87
2022/08/15 11:03:44;;;;;;;1.10;1.10;;;27.30;66.50;;;;;;5067264;28;20556;-85
2022/08/15 11:06:15;;;;;;;2.50;1.90;;;27.50;66.70;;;;;;5069639;28;20511;-84
2022/08/15 11:08:48;;;;;;;2.17;1.33;;;27.70;67.20;;;;;;5070342;28;20470;-85
2022/08/15 11:11:17;;;;;;;2.80;1.80;;;27.70;67.50;;;;;;5074129;28;21275;-84
2022/08/15 11:13:50;;;;;;;1.63;1.53;;;27.90;67.50;;;;;;5074435;28;20455;-84
2022/08/15 11:16:25;;;;;;;3.90;2.13;;;28.10;66.40;;;;;;5068896;28;20472;-90
2022/08/15 11:18:56;;;;;;;3.00;1.30;;;28.10;64.70;;;;;;5072733;28;20450;-88
2022/08/15 11:21:32;;;;;;;1.50;1.40;;;27.90;66.30;;;;;;5081214;28;20868;-88
2022/08/15 11:24:05;;;;;;;1.83;1.73;;;28.20;68.00;;;;;;5074369;28;20463;-87
2022/08/15 11:26:34;;;;;;;2.30;1.67;;;28.00;66.90;;;;;;5079317;28;20559;-86
2022/08/15 11:29:15;;;;;;;1.73;1.47;;;28.00;64.70;;;;;;5086252;28;20524;-87
2022/08/15 11:31:51;;;;;;;1.67;1.57;;;28.00;66.60;;;;;;5077383;28;20580;-90
2022/08/15 11:34:25;;;;;;;2.30;1.43;;;28.10;64.70;;;;;;5073975;28;20514;-85
2022/08/15 11:36:58;;;;;;;1.40;1.20;;;28.00;64.90;;;;;;5071035;28;20946;-91
2022/08/15 11:39:28;;;;;;;1.93;1.83;;;27.90;64.80;;;;;;5074965;28;20454;-88
2022/08/15 11:41:59;;;;;;;1.57;1.47;;;27.70;66.70;;;;;;5081888;28;20469;-89
2022/08/15 11:44:34;;;;;;;3.17;1.67;;;28.00;66.50;;;;;;5079070;28;20490;-88
2022/08/15 11:47:03;;;;;;;0.93;0.93;;;28.00;61.80;;;;;;5078252;28;20475;-87
2022/08/15 11:49:34;;;;;;;2.23;1.80;;;28.00;65.60;;;;;;5073827;28;20515;-84
2022/08/15 11:52:07;;;;;;;1.60;1.50;;;28.10;66.70;;;;;;5069801;28;20498;-86
2022/08/15 11:54:34;;;;;;;2.40;1.33;;;28.40;64.20;;;;;;5071565;28;20863;-84
2022/08/15 11:57:04;;;;;;;1.90;1.43;;;28.60;66.10;;;;;;5067686;28;21023;-85
2022/08/15 11:59:33;;;;;;;1.27;1.20;;;28.60;68.30;;;;;;5071383;28;20960;-84
2022/08/15 12:02:14;;;;;;;2.30;2.10;;;28.80;62.40;;;;;;5073113;28;20589;-86
2022/08/15 12:04:43;;;;;;;1.60;1.50;;;28.40;62.70;;;;;;5067948;28;20502;-84
2022/08/15 12:07:16;;;;;;;4.60;3.20;;;28.00;64.80;;;;;;5073685;28;20559;-87
2022/08/15 12:09:55;;;;;;;1.43;1.33;;;28.20;64.60;;;;;;5070434;28;20444;-85
2022/08/15 12:12:42;;;;;;;1.77;1.20;;;28.30;64.10;;;;;;5069481;28;20456;-84
2022/08/15 12:15:14;;;;;;;1.97;1.87;;;28.20;62.70;;;;;;5071648;28;20470;-85
2022/08/15 12:18:00;;;;;;;1.70;1.60;;;28.00;62.20;;;;;;5075140;28;20547;-84
2022/08/15 12:21:05;;;;;;;1.10;1.10;;;28.00;62.50;;;;;;5071754;28;20463;-83
2022/08/15 12:23:42;;;;;;;1.37;1.27;;;27.70;62.60;;;;;;5067030;28;20464;-84
2022/08/15 12:26:12;;;;;;;9.30;1.80;;;27.90;63.30;;;;;;5066167;28;20487;-87
2022/08/15 12:28:41;;;;;;;2.10;1.63;;;28.00;62.00;;;;;;5069359;28;20520;-83
2022/08/15 12:31:19;;;;;;;1.20;1.20;;;28.10;63.80;;;;;;5072721;28;21092;-86
2022/08/15 12:33:47;;;;;;;1.90;1.80;;;28.20;61.60;;;;;;5072304;28;20525;-86
2022/08/15 12:36:15;;;;;;;5.30;1.33;;;28.40;60.20;;;;;;5076125;28;21088;-86
2022/08/15 12:38:43;;;;;;;2.33;1.30;;;28.60;60.50;;;;;;5073527;28;20551;-84
2022/08/15 12:41:11;;;;;;;3.37;2.17;;;28.20;60.80;;;;;;5065515;28;20479;-85
2022/08/15 12:43:38;;;;;;;1.37;1.20;;;28.30;61.90;;;;;;5073872;28;20741;-86
2022/08/15 12:46:05;;;;;;;2.80;1.60;;;28.10;61.70;;;;;;5081350;28;20517;-84
2022/08/15 12:48:34;;;;;;;1.57;1.30;;;28.20;61.40;;;;;;5086494;28;20463;-84
2022/08/15 12:51:02;;;;;;;1.93;1.63;;;28.20;60.00;;;;;;5085225;28;20487;-85
2022/08/15 12:53:29;;;;;;;1.70;1.60;;;28.30;60.80;;;;;;5092017;28;20450;-85
2022/08/15 12:55:58;;;;;;;2.03;1.83;;;28.40;61.10;;;;;;5081531;28;20455;-84
2022/08/15 12:58:26;;;;;;;1.13;1.03;;;28.40;61.30;;;;;;5077555;28;20947;-85
2022/08/15 13:00:55;;;;;;;1.33;1.00;;;28.30;59.50;;;;;;5078752;28;20498;-84
2022/08/15 13:03:27;;;;;;;1.50;1.40;;;28.30;60.10;;;;;;5089631;28;20457;-87
2022/08/15 13:05:59;;;;;;;1.63;1.10;;;28.50;59.70;;;;;;5082227;28;20542;-84
2022/08/15 13:08:26;;;;;;;1.67;1.30;;;28.60;61.80;;;;;;5075526;28;20874;-85
2022/08/15 13:10:54;;;;;;;1.50;1.40;;;28.80;59.10;;;;;;5072202;28;20479;-84
2022/08/15 13:13:23;;;;;;;1.60;1.50;;;28.70;59.90;;;;;;5067556;28;20472;-85
2022/08/15 13:16:37;;;;;;;1.57;1.43;;;29.00;60.60;;;;;;5066752;28;20475;-85